Time;durP1;ratioP1;P1;durP2;ratioP2;P2;SDS_P1;SDS_P2;PMS_P1;PMS_P2;Temp;Humidity;BMP_temperature;BMP_pressure;BME280_temperature;BME280_humidity;BME280_pressure;Samples;Min_cycle;Max_cycle;Signal;HPM_P1;HPM_P2
2024/02/12 05:34:49;;;;;;;6.88;3.17;;;;;;;;;;4662318;26;20122;-90
2024/02/12 05:37:45;;;;;;;9.98;4.25;;;;;;;;;;4955496;28;20030;-88
2024/02/12 05:40:31;;;;;;;4.97;2.53;;;;;;;;;;4953767;28;20015;-90
2024/02/12 05:43:16;;;;;;;13.60;6.07;;;;;;;;;;4968786;28;20022;-88
2024/02/12 05:46:03;;;;;;;9.75;5.55;;;;;;;;;;4947220;28;20070;-90
2024/02/12 05:49:13;;;;;;;5.53;2.58;;;;;;;;;;4973215;28;20046;-90
2024/02/12 05:58:54;;;;;;;2.67;1.70;;;;;;;;;;4899648;29;20028;-88
2024/02/12 06:01:52;;;;;;;;;;;;;;;;;;;;;
2024/02/12 06:05:30;;;;;;;;;;;;;;;;;;;;;
2024/02/12 06:28:44;;;;;;;4.43;1.60;;;;;;;;;;4852509;29;20047;-89
2024/02/12 06:32:14;;;;;;;;;;;;;;;;;;;;;
2024/02/12 06:35:45;;;;;;;3.20;1.60;;;;;;;;;;4884032;29;20052;-90
2024/02/12 06:45:25;;;;;;;2.03;1.50;;;;;;;;;;4940930;28;20026;-87
2024/02/12 06:48:41;;;;;;;;;;;;;;;;;;;;;
2024/02/12 06:51:26;;;;;;;2.97;1.92;;;;;;;;;;4936335;28;20030;-86
2024/02/12 06:54:12;;;;;;;6.63;2.30;;;;;;;;;;4958515;28;20053;-86
2024/02/12 06:56:57;;;;;;;4.38;1.70;;;;;;;;;;4968188;28;20061;-89
2024/02/12 06:59:48;;;;;;;2.75;1.55;;;;;;;;;;4967341;28;20025;-90
2024/02/12 07:02:35;;;;;;;9.35;2.08;;;;;;;;;;4960211;28;20019;-90
2024/02/12 07:05:20;;;;;;;2.65;1.58;;;;;;;;;;4956897;28;20022;-88
2024/02/12 07:08:10;;;;;;;3.05;1.50;;;;;;;;;;4941867;28;20038;-88
2024/02/12 07:10:55;;;;;;;;;;;;;;;;;;4956388;28;20022;-88
2024/02/12 07:28:15;;;;;;;;;;;;;;;;;;;;;
2024/02/12 07:53:03;;;;;;;3.35;1.70;;;;;;;;;;4709639;30;20048;-91
2024/02/12 08:06:43;;;;;;;1.88;1.40;;;;;;;;;;4728264;29;20040;-90
2024/02/12 08:09:35;;;;;;;2.95;1.65;;;;;;;;;;4790098;29;20042;-90
2024/02/12 08:12:51;;;;;;;;;;;;;;;;;;;;;
2024/02/12 08:16:11;;;;;;;;;;;;;;;;;;;;;
2024/02/12 08:30:21;;;;;;;7.65;1.63;;;;;;;;;;4820000;29;20057;-91
2024/02/12 08:33:36;;;;;;;2.63;1.60;;;;;;;;;;4754746;30;20103;-89
2024/02/12 08:36:54;;;;;;;1.75;1.02;;;;;;;;;;4814299;29;20053;-90
2024/02/12 08:40:16;;;;;;;3.13;1.25;;;;;;;;;;4816527;29;20042;-90
2024/02/12 08:43:27;;;;;;;1.42;1.05;;;;;;;;;;4878187;29;20037;-90
2024/02/12 08:50:10;;;;;;;;;;;;;;;;;;;;;
2024/02/12 08:57:03;;;;;;;1.65;1.10;;;;;;;;;;4842853;29;20045;-89
2024/02/12 09:00:13;;;;;;;2.22;1.30;;;;;;;;;;4838443;29;20034;-90
2024/02/12 09:03:12;;;;;;;;;;;;;;;;;;;;;
2024/02/12 09:06:38;;;;;;;;;;;;;;;;;;;;;
2024/02/12 09:09:35;;;;;;;1.70;1.20;;;;;;;;;;4960773;29;20027;-90
2024/02/12 09:12:37;;;;;;;;;;;;;;;;;;;;;
2024/02/12 09:19:18;;;;;;;;;;;;;;;;;;;;;
2024/02/12 09:33:06;;;;;;;;;;;;;;;;;;;;;
2024/02/12 09:36:13;;;;;;;;;;;;;;;;;;;;;
2024/02/12 09:49:27;;;;;;;;;;;;;;;;;;;;;
2024/02/12 10:02:20;;;;;;;1.23;1.13;;;;;;;;;;4777446;29;20082;-90
2024/02/12 10:05:37;;;;;;;;;;;;;;;;;;;;;
2024/02/12 10:12:02;;;;;;;;;;;;;;;;;;;;;
2024/02/12 10:15:13;;;;;;;4.97;2.30;;;;;;;;;;4864479;29;20089;-90
2024/02/12 10:18:20;;;;;;;4.18;1.55;;;;;;;;;;4856404;29;20071;-90
2024/02/12 10:21:15;;;;;;;2.45;1.55;;;;;;;;;;4871945;29;20033;-87
2024/02/12 10:24:06;;;;;;;2.55;1.70;;;;;;;;;;4892846;29;20032;-89
2024/02/12 10:27:03;;;;;;;1.52;1.20;;;;;;;;;;4933788;28;20150;-88
2024/02/12 10:30:05;;;;;;;2.60;1.60;;;;;;;;;;4935211;28;20027;-90
2024/02/12 10:33:00;;;;;;;;;;;;;;;;;;;;;
2024/02/12 10:36:00;;;;;;;;;;;;;;;;;;;;;
2024/02/12 10:38:46;;;;;;;3.13;1.48;;;;;;;;;;4916345;29;20079;-87
2024/02/12 10:41:34;;;;;;;1.98;1.30;;;;;;;;;;4915398;29;20024;-88
2024/02/12 10:44:27;;;;;;;2.45;1.63;;;;;;;;;;4906718;29;20023;-88
2024/02/12 10:47:22;;;;;;;2.97;1.42;;;;;;;;;;4914895;29;20024;-90
2024/02/12 10:50:13;;;;;;;4.20;1.83;;;;;;;;;;4917293;29;20740;-89
2024/02/12 10:53:00;;;;;;;2.40;1.60;;;;;;;;;;4917294;29;20020;-88
2024/02/12 10:55:59;;;;;;;;;;;;;;;;;;;;;
2024/02/12 10:58:45;;;;;;;4.10;1.70;;;;;;;;;;4916932;29;20031;-90
2024/02/12 11:01:34;;;;;;;6.15;1.80;;;;;;;;;;4914514;29;20027;-88
2024/02/12 11:04:26;;;;;;;2.95;1.63;;;;;;;;;;4917023;29;20008;-89
2024/02/12 11:07:24;;;;;;;1.80;1.15;;;;;;;;;;4915661;29;20027;-89
2024/02/12 11:10:35;;;;;;;3.42;1.42;;;;;;;;;;4904038;29;20039;-88
2024/02/12 11:13:27;;;;;;;3.15;1.50;;;;;;;;;;4916152;29;20078;-90
2024/02/12 11:16:38;;;;;;;2.00;1.30;;;;;;;;;;4918093;29;20027;-89
2024/02/12 11:19:47;;;;;;;4.75;1.50;;;;;;;;;;4917368;29;20099;-90
2024/02/12 11:22:44;;;;;;;4.28;1.83;;;;;;;;;;4903378;29;20036;-88
2024/02/12 11:25:41;;;;;;;;;;;;;;;;;;;;;
2024/02/12 11:28:30;;;;;;;5.25;1.85;;;;;;;;;;4913658;29;20023;-88
2024/02/12 11:31:16;;;;;;;4.25;1.58;;;;;;;;;;4917879;29;20020;-87
2024/02/12 11:34:11;;;;;;;2.05;1.30;;;;;;;;;;4920690;29;20027;-89
2024/02/12 11:36:57;;;;;;;2.05;1.38;;;;;;;;;;4958358;28;20045;-87
2024/02/12 11:39:44;;;;;;;1.92;1.30;;;;;;;;;;4958507;28;20050;-87
2024/02/12 11:42:39;;;;;;;4.60;1.73;;;;;;;;;;4956415;28;20042;-89
2024/02/12 11:45:27;;;;;;;2.90;1.35;;;;;;;;;;4942625;28;20019;-88
2024/02/12 11:48:27;;;;;;;1.80;1.42;;;;;;;;;;4957167;28;20051;-88
2024/02/12 11:51:19;;;;;;;2.83;1.17;;;;;;;;;;4957066;28;20031;-88
2024/02/12 11:54:06;;;;;;;2.70;1.48;;;;;;;;;;4957271;28;20034;-89
2024/02/12 11:56:53;;;;;;;2.55;1.45;;;;;;;;;;4946327;28;20035;-88
2024/02/12 11:59:39;;;;;;;2.83;1.60;;;;;;;;;;4957937;28;20023;-89
2024/02/12 12:02:24;;;;;;;2.20;1.50;;;;;;;;;;4957962;28;20026;-88
2024/02/12 12:05:14;;;;;;;2.80;1.50;;;;;;;;;;4957884;28;20022;-89
2024/02/12 12:08:02;;;;;;;2.17;1.40;;;;;;;;;;4955226;28;20054;-88
2024/02/12 12:11:07;;;;;;;3.65;1.85;;;;;;;;;;4957685;28;20415;-89
2024/02/12 12:14:10;;;;;;;3.38;1.40;;;;;;;;;;4957014;28;20081;-89
2024/02/12 12:16:59;;;;;;;1.95;1.40;;;;;;;;;;4957840;28;20061;-89
2024/02/12 12:23:14;;;;;;;2.55;1.65;;;;;;;;;;4972237;28;20055;-90
2024/02/12 12:26:03;;;;;;;3.25;1.23;;;;;;;;;;4954897;28;20295;-88
2024/02/12 12:29:13;;;;;;;2.63;1.35;;;;;;;;;;4957894;28;20033;-90
2024/02/12 12:32:00;;;;;;;2.92;1.77;;;;;;;;;;4957123;28;20058;-89
2024/02/12 12:35:07;;;;;;;;;;;;;;;;;;;;;
2024/02/12 12:37:53;;;;;;;2.53;1.40;;;;;;;;;;4957148;28;20031;-89
2024/02/12 12:40:42;;;;;;;2.40;1.58;;;;;;;;;;4957266;28;20029;-87
2024/02/12 12:43:35;;;;;;;4.18;1.70;;;;;;;;;;4955360;28;20027;-88
2024/02/12 12:46:26;;;;;;;1.80;1.33;;;;;;;;;;4956805;28;20106;-88
2024/02/12 12:49:21;;;;;;;;;;;;;;;;;;;;;
2024/02/12 12:52:10;;;;;;;3.65;1.58;;;;;;;;;;4937818;28;20118;-86
2024/02/12 12:54:55;;;;;;;3.33;1.40;;;;;;;;;;4947327;28;20018;-88
2024/02/12 12:57:42;;;;;;;2.13;1.40;;;;;;;;;;4974808;28;20023;-88
2024/02/12 13:00:40;;;;;;;2.13;1.10;;;;;;;;;;4974274;28;20045;-89
2024/02/12 13:03:26;;;;;;;3.15;1.60;;;;;;;;;;4978742;28;20045;-89
2024/02/12 13:06:13;;;;;;;2.22;1.42;;;;;;;;;;4980073;28;20111;-87
2024/02/12 13:09:04;;;;;;;2.90;1.50;;;;;;;;;;4974518;28;20023;-89
2024/02/12 13:11:55;;;;;;;2.13;1.35;;;;;;;;;;4971542;28;20022;-88
2024/02/12 13:14:44;;;;;;;3.08;1.60;;;;;;;;;;4956653;28;20073;-89
2024/02/12 13:17:33;;;;;;;1.73;1.25;;;;;;;;;;4950098;28;20023;-89
2024/02/12 13:23:44;;;;;;;4.83;1.53;;;;;;;;;;4904222;28;20135;-88
2024/02/12 13:26:40;;;;;;;;;;;;;;;;;;;;;
2024/02/12 13:29:29;;;;;;;6.18;2.78;;;;;;;;;;4955385;28;20033;-90
2024/02/12 13:32:32;;;;;;;;;;;;;;;;;;;;;
2024/02/12 13:35:23;;;;;;;2.70;1.45;;;;;;;;;;4955919;28;20118;-90
2024/02/12 13:38:30;;;;;;;;;;;;;;;;;;;;;
2024/02/12 13:41:25;;;;;;;3.53;1.08;;;;;;;;;;4957698;28;20439;-89
2024/02/12 13:44:21;;;;;;;3.05;1.52;;;;;;;;;;4948263;28;20126;-87
2024/02/12 13:47:07;;;;;;;2.72;1.20;;;;;;;;;;4956254;28;20530;-88
2024/02/12 13:50:07;;;;;;;2.88;1.35;;;;;;;;;;4943076;28;20046;-88
2024/02/12 13:53:00;;;;;;;3.55;1.23;;;;;;;;;;4945791;28;20023;-89
2024/02/12 13:55:51;;;;;;;1.63;1.20;;;;;;;;;;4956870;28;20037;-88
2024/02/12 13:58:57;;;;;;;;;;;;;;;;;;;;;
2024/02/12 14:01:55;;;;;;;1.30;0.90;;;;;;;;;;4948526;28;20121;-86
2024/02/12 14:04:46;;;;;;;3.10;0.90;;;;;;;;;;4955175;28;20023;-88
2024/02/12 14:08:04;;;;;;;;;;;;;;;;;;;;;
2024/02/12 14:10:59;;;;;;;1.90;1.40;;;;;;;;;;4939643;28;20048;-89
2024/02/12 14:13:47;;;;;;;2.33;1.05;;;;;;;;;;4962179;28;20031;-87
2024/02/12 14:16:42;;;;;;;0.80;0.80;;;;;;;;;;4955491;28;20027;-88
2024/02/12 14:19:41;;;;;;;2.30;1.75;;;;;;;;;;4956214;28;20034;-88
2024/02/12 14:22:41;;;;;;;2.10;0.82;;;;;;;;;;4957819;28;20045;-90
2024/02/12 14:25:34;;;;;;;1.50;1.05;;;;;;;;;;4957153;28;20030;-89
2024/02/12 14:28:26;;;;;;;1.27;1.00;;;;;;;;;;4945831;28;20058;-88
2024/02/12 14:31:30;;;;;;;1.02;0.82;;;;;;;;;;4956650;28;20030;-88
2024/02/12 14:34:17;;;;;;;3.80;1.73;;;;;;;;;;4957775;28;20023;-88
2024/02/12 14:37:05;;;;;;;2.13;1.00;;;;;;;;;;4957936;28;20023;-90
2024/02/12 14:40:06;;;;;;;4.32;1.13;;;;;;;;;;4956737;28;20033;-88
2024/02/12 14:43:04;;;;;;;;;;;;;;;;;;;;;
2024/02/12 14:46:09;;;;;;;2.15;1.02;;;;;;;;;;4971875;28;20069;-90
2024/02/12 14:48:55;;;;;;;2.30;1.02;;;;;;;;;;4967652;28;20038;-89
2024/02/12 14:51:45;;;;;;;3.92;1.30;;;;;;;;;;4970144;28;20046;-88
2024/02/12 14:54:36;;;;;;;2.75;1.33;;;;;;;;;;4975061;28;20081;-89
2024/02/12 14:57:24;;;;;;;3.15;2.00;;;;;;;;;;4956952;28;20019;-90
2024/02/12 15:00:17;;;;;;;2.70;1.40;;;;;;;;;;4942014;28;20047;-87
2024/02/12 15:03:06;;;;;;;1.27;0.95;;;;;;;;;;4944726;28;20105;-87
2024/02/12 15:05:59;;;;;;;3.22;1.15;;;;;;;;;;4953495;28;20019;-89
2024/02/12 15:08:45;;;;;;;1.58;1.00;;;;;;;;;;4955970;28;20019;-90
2024/02/12 15:14:55;;;;;;;2.63;1.48;;;;;;;;;;4960670;28;20031;-88
2024/02/12 15:17:42;;;;;;;2.03;0.90;;;;;;;;;;4936538;28;20069;-89
2024/02/12 15:20:33;;;;;;;1.25;1.02;;;;;;;;;;4954739;28;20066;-87
2024/02/12 15:23:23;;;;;;;5.07;1.38;;;;;;;;;;4948728;28;20050;-89
2024/02/12 15:26:11;;;;;;;1.98;1.23;;;;;;;;;;4965350;28;20033;-88
2024/02/12 15:29:00;;;;;;;1.95;1.13;;;;;;;;;;4951678;28;20114;-88
2024/02/12 15:31:45;;;;;;;3.10;1.17;;;;;;;;;;4951150;28;20033;-87
2024/02/12 15:34:33;;;;;;;4.53;1.23;;;;;;;;;;4952868;28;20046;-90
2024/02/12 15:37:20;;;;;;;2.65;0.98;;;;;;;;;;4954661;28;20050;-87
2024/02/12 15:40:11;;;;;;;3.70;1.02;;;;;;;;;;4940679;28;20027;-88
2024/02/12 15:43:01;;;;;;;3.38;1.58;;;;;;;;;;4954636;28;20069;-89
2024/02/12 15:45:49;;;;;;;2.55;1.30;;;;;;;;;;4953688;28;20062;-89
2024/02/12 15:48:44;;;;;;;2.67;0.95;;;;;;;;;;4954739;28;20160;-89
2024/02/12 15:51:32;;;;;;;2.63;1.38;;;;;;;;;;4954623;28;20035;-87
2024/02/12 15:54:32;;;;;;;2.03;1.17;;;;;;;;;;4953689;28;20116;-88
2024/02/12 15:57:23;;;;;;;6.32;1.63;;;;;;;;;;4953771;28;20042;-87
2024/02/12 16:00:14;;;;;;;4.75;1.42;;;;;;;;;;4954392;28;20110;-87
2024/02/12 16:03:01;;;;;;;2.63;1.08;;;;;;;;;;4954348;28;20058;-87
2024/02/12 16:06:04;;;;;;;4.95;1.27;;;;;;;;;;4953673;28;20007;-87
2024/02/12 16:08:51;;;;;;;3.90;1.30;;;;;;;;;;4953948;28;20018;-89
2024/02/12 16:11:43;;;;;;;2.25;1.10;;;;;;;;;;4952690;28;20039;-86
2024/02/12 16:14:28;;;;;;;2.08;1.13;;;;;;;;;;4953637;28;20030;-88
2024/02/12 16:17:15;;;;;;;3.55;1.08;;;;;;;;;;4954994;28;20031;-86
2024/02/12 16:20:01;;;;;;;2.97;1.98;;;;;;;;;;4955861;28;20031;-87
2024/02/12 16:22:49;;;;;;;5.60;1.48;;;;;;;;;;4957603;28;20026;-86
2024/02/12 16:25:38;;;;;;;3.53;1.77;;;;;;;;;;4958354;28;20058;-84
2024/02/12 16:28:23;;;;;;;4.20;1.60;;;;;;;;;;4957020;28;20045;-85
2024/02/12 16:31:11;;;;;;;2.25;0.80;;;;;;;;;;4952551;28;20035;-86
2024/02/12 16:33:56;;;;;;;2.55;1.20;;;;;;;;;;4944599;28;20042;-86
2024/02/12 16:36:42;;;;;;;4.15;1.15;;;;;;;;;;4943475;28;20043;-85
2024/02/12 16:39:27;;;;;;;5.30;1.05;;;;;;;;;;4955324;28;20014;-86
2024/02/12 16:42:13;;;;;;;2.30;1.33;;;;;;;;;;4957285;28;20023;-87
2024/02/12 16:45:00;;;;;;;3.97;1.27;;;;;;;;;;4956450;28;20030;-87
2024/02/12 16:47:48;;;;;;;5.20;1.20;;;;;;;;;;4952487;28;20138;-87
2024/02/12 16:50:39;;;;;;;4.43;1.30;;;;;;;;;;4951328;28;20015;-88
2024/02/12 16:53:30;;;;;;;5.72;1.63;;;;;;;;;;4956475;28;20019;-87
2024/02/12 16:56:18;;;;;;;1.90;1.17;;;;;;;;;;4956855;28;20077;-88
2024/02/12 16:59:03;;;;;;;3.50;1.80;;;;;;;;;;4956248;28;20106;-88
2024/02/12 17:01:49;;;;;;;5.40;1.58;;;;;;;;;;4947962;28;20038;-86
2024/02/12 17:04:34;;;;;;;4.18;1.65;;;;;;;;;;4956275;28;20077;-86
2024/02/12 17:07:27;;;;;;;4.20;1.80;;;;;;;;;;4955840;28;20029;-87
2024/02/12 17:10:13;;;;;;;7.97;1.63;;;;;;;;;;4958815;28;20015;-89
2024/02/12 17:12:58;;;;;;;3.05;1.50;;;;;;;;;;4956785;28;20073;-89
2024/02/12 17:15:51;;;;;;;6.25;2.30;;;;;;;;;;4956264;28;20018;-89
2024/02/12 17:18:39;;;;;;;19.50;7.25;;;;;;;;;;4953870;28;20027;-89
2024/02/12 17:21:27;;;;;;;10.23;3.95;;;;;;;;;;4955785;28;20020;-88
2024/02/12 17:24:13;;;;;;;10.60;3.67;;;;;;;;;;4955594;28;20022;-89
2024/02/12 17:27:04;;;;;;;8.70;3.55;;;;;;;;;;4956154;28;20027;-88
2024/02/12 17:29:57;;;;;;;8.65;1.92;;;;;;;;;;4969817;28;20090;-87
2024/02/12 17:32:53;;;;;;;8.45;2.05;;;;;;;;;;4975081;28;20078;-87
2024/02/12 17:35:38;;;;;;;4.40;1.67;;;;;;;;;;4924361;29;20074;-90
2024/02/12 17:38:26;;;;;;;4.28;1.80;;;;;;;;;;4929140;29;20023;-89
2024/02/12 17:41:14;;;;;;;6.32;2.00;;;;;;;;;;4918170;29;20034;-88
2024/02/12 17:44:05;;;;;;;3.20;1.27;;;;;;;;;;4906161;29;20128;-89
2024/02/12 17:47:00;;;;;;;2.83;1.40;;;;;;;;;;4918788;29;20115;-88
2024/02/12 18:36:19;;;;;;;;;;;;;;;;;;;;;
2024/02/12 18:53:59;;;;;;;;;;;;;;;;;;;;;
2024/02/12 18:56:52;;;;;;;6.43;2.20;;;;;;;;;;4781115;29;20039;-88
2024/02/12 19:00:07;;;;;;;6.93;2.28;;;;;;;;;;4750798;30;20036;-92
2024/02/12 19:03:21;;;;;;;;;;;;;;;;;;;;;
2024/02/12 19:06:20;;;;;;;11.15;3.90;;;;;;;;;;4729931;30;20054;-89
2024/02/12 19:09:09;;;;;;;7.20;2.88;;;;;;;;;;4781872;29;20404;-87
2024/02/12 19:11:54;;;;;;;7.80;2.42;;;;;;;;;;4896595;29;20088;-89
2024/02/12 19:14:53;;;;;;;;;;;;;;;;;;;;;
2024/02/12 19:17:58;;;;;;;;;;;;;;;;;;;;;
2024/02/12 19:20:46;;;;;;;4.20;1.90;;;;;;;;;;4841511;29;20040;-87
2024/02/12 19:23:32;;;;;;;5.25;2.20;;;;;;;;;;4883071;29;20098;-86
2024/02/12 19:26:20;;;;;;;8.57;3.78;;;;;;;;;;4903074;29;20044;-88
2024/02/12 19:29:12;;;;;;;8.52;4.78;;;;;;;;;;4884947;29;20073;-88
2024/02/12 19:31:58;;;;;;;5.70;2.88;;;;;;;;;;4880629;29;20031;-88
2024/02/12 19:34:46;;;;;;;10.40;2.58;;;;;;;;;;4880374;29;20032;-88
2024/02/12 19:37:31;;;;;;;6.32;2.28;;;;;;;;;;4886333;29;20062;-88
2024/02/12 19:40:17;;;;;;;5.03;2.25;;;;;;;;;;4878424;29;20037;-88
2024/02/12 19:43:08;;;;;;;6.75;2.42;;;;;;;;;;4888159;29;20036;-88
2024/02/12 19:46:06;;;;;;;;;;;;;;;;;;;;;
2024/02/12 19:48:54;;;;;;;7.68;2.00;;;;;;;;;;4901068;29;20069;-86
2024/02/12 19:52:07;;;;;;;6.30;3.00;;;;;;;;;;4879096;29;20044;-86
2024/02/12 19:54:59;;;;;;;4.65;2.60;;;;;;;;;;4875571;29;20620;-85
2024/02/12 19:57:55;;;;;;;;;;;;;;;;;;;;;
2024/02/12 20:00:51;;;;;;;6.47;2.40;;;;;;;;;;4892820;29;20064;-88
2024/02/12 20:04:04;;;;;;;5.38;2.40;;;;;;;;;;4891702;29;20059;-87
2024/02/12 20:07:12;;;;;;;4.78;2.42;;;;;;;;;;4887323;29;20169;-86
2024/02/12 20:10:27;;;;;;;;;;;;;;;;;;;;;
2024/02/12 20:13:23;;;;;;;11.05;4.65;;;;;;;;;;4871486;29;20139;-87
2024/02/12 20:16:30;;;;;;;;;;;;;;;;;;;;;
2024/02/12 20:19:18;;;;;;;7.25;3.22;;;;;;;;;;4881209;29;20045;-82
2024/02/12 20:22:04;;;;;;;8.18;3.30;;;;;;;;;;4881920;29;20041;-92
2024/02/12 20:41:52;;;;;;;6.20;2.60;;;;;;;;;;4877780;29;20121;-90
2024/02/12 20:44:49;;;;;;;6.15;2.45;;;;;;;;;;4864334;29;20085;-91
2024/02/12 20:51:23;;;;;;;3.97;2.15;;;;;;;;;;4833252;29;20116;-88
2024/02/12 20:54:42;;;;;;;;;;;;;;;;;;;;;
2024/02/12 21:01:08;;;;;;;;;;;;;;;;;;;;;
2024/02/12 21:04:00;;;;;;;9.15;2.83;;;;;;;;;;4857481;29;20032;-86
2024/02/12 21:06:54;;;;;;;6.60;2.22;;;;;;;;;;4852976;29;20059;-89
2024/02/12 21:09:44;;;;;;;7.55;2.63;;;;;;;;;;4867587;29;20085;-88
2024/02/12 21:17:55;;;;;;;14.13;5.65;;;;;;;;;;4977193;23;20755;-88
2024/02/12 21:20:43;;;;;;;10.27;4.05;;;;;;;;;;4983319;28;20076;-88
2024/02/12 21:26:39;;;;;;;10.65;3.55;;;;;;;;;;4929145;29;20040;-87
2024/02/12 21:29:33;;;;;;;9.88;3.50;;;;;;;;;;4910128;29;20031;-89
2024/02/12 21:32:29;;;;;;;;;;;;;;;;;;;;;
2024/02/12 21:35:46;;;;;;;;;;;;;;;;;;;;;
2024/02/12 21:38:42;;;;;;;;;;;;;;;;;;;;;
2024/02/12 21:44:21;;;;;;;7.90;3.47;;;;;;;;;;4959300;28;20030;-89
2024/02/12 21:47:21;;;;;;;5.82;1.95;;;;;;;;;;4960014;28;20054;-88
2024/02/12 21:50:09;;;;;;;5.30;2.47;;;;;;;;;;4984304;28;20046;-88
2024/02/12 21:52:55;;;;;;;7.88;2.72;;;;;;;;;;4967450;28;20054;-88
2024/02/12 22:02:49;;;;;;;;;;;;;;;;;;;;;
2024/02/12 22:05:35;;;;;;;7.30;2.63;;;;;;;;;;4954363;28;20034;-88
2024/02/12 22:08:23;;;;;;;6.40;2.67;;;;;;;;;;4959214;28;20035;-86
2024/02/12 22:11:12;;;;;;;6.15;2.20;;;;;;;;;;4967843;28;20018;-88
2024/02/12 22:13:57;;;;;;;6.63;2.30;;;;;;;;;;4895020;28;20117;-86
2024/02/12 22:16:42;;;;;;;5.38;3.00;;;;;;;;;;4967246;28;20046;-86
2024/02/12 22:19:28;;;;;;;5.43;2.10;;;;;;;;;;4957918;28;20027;-86
2024/02/12 22:22:16;;;;;;;3.50;2.00;;;;;;;;;;4975422;28;20116;-85
2024/02/12 22:25:03;;;;;;;7.82;1.80;;;;;;;;;;4945200;28;20027;-86
2024/02/12 22:27:51;;;;;;;6.45;2.60;;;;;;;;;;4941863;28;20022;-87
2024/02/12 22:30:38;;;;;;;6.80;2.70;;;;;;;;;;4965730;28;20486;-87
2024/02/12 22:33:48;;;;;;;6.88;2.40;;;;;;;;;;4971569;28;20042;-86
2024/02/12 22:36:34;;;;;;;7.65;2.63;;;;;;;;;;4961773;28;20485;-87
2024/02/12 22:39:20;;;;;;;6.78;2.33;;;;;;;;;;4959638;28;20118;-86
2024/02/12 22:42:08;;;;;;;7.13;3.13;;;;;;;;;;4965098;28;20022;-86
2024/02/12 22:44:53;;;;;;;10.10;3.30;;;;;;;;;;4955776;28;20038;-87
2024/02/12 22:47:38;;;;;;;10.50;2.50;;;;;;;;;;4958634;28;20037;-87
2024/02/12 22:50:29;;;;;;;8.52;3.38;;;;;;;;;;4955793;28;20023;-88
2024/02/12 22:53:15;;;;;;;4.53;1.83;;;;;;;;;;4973707;28;20026;-88
2024/02/12 22:56:00;;;;;;;4.85;2.08;;;;;;;;;;4947514;28;20033;-89
2024/02/12 22:58:47;;;;;;;10.45;2.90;;;;;;;;;;4961984;28;20080;-92
2024/02/12 23:01:38;;;;;;;5.15;2.10;;;;;;;;;;4957206;28;20027;-89
2024/02/12 23:04:30;;;;;;;7.78;2.40;;;;;;;;;;4958033;28;19998;-89
2024/02/12 23:07:18;;;;;;;5.82;3.10;;;;;;;;;;4966564;28;20465;-90
2024/02/12 23:10:06;;;;;;;8.18;2.42;;;;;;;;;;4956451;28;20471;-88
2024/02/12 23:12:54;;;;;;;5.30;2.00;;;;;;;;;;4962443;28;20038;-89
2024/02/12 23:15:40;;;;;;;6.45;2.70;;;;;;;;;;4960014;28;20022;-88
2024/02/12 23:18:25;;;;;;;7.85;2.95;;;;;;;;;;4962101;28;20093;-89
2024/02/12 23:21:12;;;;;;;6.93;1.92;;;;;;;;;;4952741;28;20037;-88
2024/02/12 23:23:57;;;;;;;5.30;2.10;;;;;;;;;;4962054;28;20039;-87
2024/02/12 23:26:42;;;;;;;8.00;1.85;;;;;;;;;;4949171;28;20035;-88
2024/02/12 23:29:30;;;;;;;4.70;1.90;;;;;;;;;;4968273;28;20038;-89
2024/02/12 23:32:16;;;;;;;5.50;2.00;;;;;;;;;;4966157;28;20042;-85
2024/02/12 23:35:05;;;;;;;6.97;1.77;;;;;;;;;;4961276;28;20022;-86
2024/02/12 23:37:50;;;;;;;4.90;2.40;;;;;;;;;;4972088;28;20381;-87
2024/02/12 23:40:38;;;;;;;5.88;2.00;;;;;;;;;;4943584;28;20105;-88
2024/02/12 23:43:23;;;;;;;5.45;1.92;;;;;;;;;;4972629;28;20112;-88
2024/02/12 23:46:08;;;;;;;5.32;1.77;;;;;;;;;;4956932;28;20112;-87
2024/02/12 23:48:54;;;;;;;6.03;2.10;;;;;;;;;;4955603;28;20054;-87
2024/02/12 23:51:39;;;;;;;9.13;2.50;;;;;;;;;;4949736;28;20023;-86
2024/02/12 23:54:24;;;;;;;8.48;3.42;;;;;;;;;;4967995;28;20040;-88
2024/02/12 23:57:31;;;;;;;6.68;1.83;;;;;;;;;;4954132;28;20074;-89
